GOOY/DKR METAR and TAF weather

Enter ICAO airport designator
Station Type Date Time Source
GOOY METAR 2022/05/23 13:00 UTC NOAA

GOOY 231300Z 32010KT 9999 BKN013 25/17 Q1014


Station Type Date Time Source
GOOY Decoded METAR 2022/05/23 13:00 UTC NOAA

Dakar / Yoff, Senegal (GOOY) 14-44N 017-30W 24M
May 23, 2022 - 09:00 AM EDT / 2022.05.23 1300 UTC
Wind: from the NW (320 degrees) at 12 MPH (10 KT):0
Visibility: greater than 7 mile(s):0
Sky conditions: mostly cloudy
Temperature: 77 F (25 C)
Dew Point: 62 F (17 C)
Relative Humidity: 61%
Pressure (altimeter): 29.94 in. Hg (1014 hPa)
ob: GOOY 231300Z 32010KT 9999 BKN013 25/17 Q1014
cycle: 13

Station Type Date Time Source
GOOY TAF 2022/05/23 12:52 UTC NOAA

TAF GOOY 231100Z 2312/2418 33010KT 9999 SCT013

Example: see airport list